createdAt,value
2018-06-24T00:00:45.517Z,21.70
2018-06-24T00:01:45.425Z,18.70
2018-06-24T00:02:45.364Z,22.30
2018-06-24T00:03:45.237Z,26.00
2018-06-24T00:04:45.143Z,19.30
2018-06-24T00:05:45.053Z,19.70
2018-06-24T00:06:44.962Z,19.00
2018-06-24T00:07:44.897Z,17.40
2018-06-24T00:08:44.769Z,22.10
2018-06-24T00:09:44.680Z,20.80
2018-06-24T00:10:44.684Z,19.20
2018-06-24T00:11:44.497Z,22.30
2018-06-24T00:12:44.431Z,20.60
2018-06-24T00:13:44.338Z,20.50
2018-06-24T00:14:44.224Z,19.10
2018-06-24T00:15:44.121Z,20.00
2018-06-24T00:16:44.026Z,19.60
2018-06-24T00:17:44.061Z,17.90
2018-06-24T00:18:43.840Z,19.60
2018-06-24T00:19:43.747Z,20.20
2018-06-24T00:20:43.654Z,17.00
2018-06-24T00:21:43.564Z,20.60
2018-06-24T00:22:43.508Z,20.90
2018-06-24T00:23:43.375Z,19.10
2018-06-24T00:24:43.386Z,21.30
2018-06-24T00:25:43.188Z,22.20
2018-06-24T00:26:43.094Z,21.90
2018-06-24T00:27:43.038Z,20.60
2018-06-24T00:28:42.911Z,19.60
2018-06-24T00:29:42.814Z,23.00
2018-06-24T00:30:42.727Z,20.60
2018-06-24T00:31:42.724Z,16.50
2018-06-24T00:32:42.567Z,22.60
2018-06-24T00:33:42.445Z,20.70
2018-06-24T00:34:42.370Z,18.20
2018-06-24T00:35:42.259Z,20.10
2018-06-24T00:36:42.164Z,21.00
2018-06-24T00:37:42.074Z,20.70
2018-06-24T00:38:42.101Z,18.00
2018-06-24T00:39:41.886Z,18.80
2018-06-24T00:40:41.790Z,22.20
2018-06-24T00:41:41.700Z,20.50
2018-06-24T00:42:41.607Z,20.90
2018-06-24T00:43:41.547Z,18.80
2018-06-24T00:44:41.418Z,18.20
2018-06-24T00:45:41.420Z,19.00
2018-06-24T00:46:41.231Z,17.30
2018-06-24T00:47:41.144Z,20.80
2018-06-24T00:48:41.079Z,19.90
2018-06-24T00:49:40.953Z,16.70
2018-06-24T00:50:40.861Z,18.00
2018-06-24T00:51:40.770Z,19.60
2018-06-24T00:52:40.766Z,19.30
2018-06-24T00:53:40.611Z,20.20
2018-06-24T00:54:40.494Z,18.40
2018-06-24T00:55:40.393Z,19.70
2018-06-24T00:56:40.303Z,18.30
2018-06-24T00:57:40.208Z,17.60
2018-06-24T00:58:40.147Z,20.20
2018-06-24T00:59:40.115Z,21.50
2018-06-24T01:00:39.926Z,18.60
2018-06-24T01:01:39.834Z,17.80
2018-06-24T01:02:39.746Z,20.10
2018-06-24T01:03:39.682Z,18.60
2018-06-24T01:04:39.557Z,18.90
2018-06-24T01:05:39.460Z,18.40
2018-06-24T01:06:39.483Z,19.70
2018-06-24T01:07:39.276Z,16.20
2018-06-24T01:08:39.217Z,17.20
2018-06-24T01:09:39.089Z,17.90
2018-06-24T01:10:38.997Z,18.20
2018-06-24T01:11:38.904Z,21.10
2018-06-24T01:12:38.810Z,19.80
2018-06-24T01:13:38.841Z,19.20
2018-06-24T01:14:38.621Z,17.30
2018-06-24T01:15:38.531Z,21.10
2018-06-24T01:16:38.440Z,16.40
2018-06-24T01:17:38.344Z,22.00
2018-06-24T01:18:38.283Z,18.90
2018-06-24T01:19:38.285Z,19.00
2018-06-24T01:20:38.067Z,17.60
2018-06-24T01:21:37.972Z,17.90
2018-06-24T01:22:37.879Z,19.70
2018-06-24T01:23:37.817Z,21.60
2018-06-24T01:24:37.696Z,19.30
2018-06-24T01:25:37.601Z,14.60
2018-06-24T01:26:37.510Z,17.00
2018-06-24T01:27:37.415Z,17.90
2018-06-24T01:28:37.352Z,20.10
2018-06-24T01:29:37.226Z,16.50
2018-06-24T01:30:37.138Z,15.80
2018-06-24T01:31:37.043Z,16.40
2018-06-24T01:32:36.953Z,17.30
2018-06-24T01:33:36.887Z,18.10
2018-06-24T01:34:36.786Z,16.50
2018-06-24T01:35:36.671Z,19.90
2018-06-24T01:36:36.575Z,16.20
2018-06-24T01:37:36.486Z,21.60
2018-06-24T01:38:36.425Z,19.80
2018-06-24T01:39:36.298Z,19.40
2018-06-24T01:40:36.203Z,15.70
2018-06-24T01:41:36.114Z,16.90
2018-06-24T01:42:36.020Z,20.60
2018-06-24T01:43:35.960Z,17.80
2018-06-24T01:44:35.834Z,16.30
2018-06-24T01:45:35.741Z,16.30
2018-06-24T01:46:35.650Z,16.60
2018-06-24T01:47:35.621Z,16.00
2018-06-24T01:48:35.461Z,17.70
2018-06-24T01:49:35.804Z,14.70
2018-06-24T01:50:35.276Z,16.50
2018-06-24T01:51:35.184Z,15.30
2018-06-24T01:52:35.089Z,18.00
2018-06-24T01:53:35.003Z,16.60
2018-06-24T01:54:34.938Z,17.90
2018-06-24T01:55:34.810Z,17.10
2018-06-24T01:56:34.718Z,13.80
2018-06-24T01:57:34.625Z,14.20
2018-06-24T01:58:34.537Z,15.30
2018-06-24T01:59:34.470Z,16.50
2018-06-24T02:00:34.347Z,15.30
2018-06-24T02:01:34.252Z,14.00
2018-06-24T02:02:34.160Z,15.10
2018-06-24T02:03:34.066Z,17.30
2018-06-24T02:04:34.008Z,16.10
2018-06-24T02:05:33.881Z,14.40
2018-06-24T02:06:33.787Z,12.80
2018-06-24T02:07:33.694Z,16.20
2018-06-24T02:08:33.601Z,14.60
2018-06-24T02:09:33.546Z,15.10
2018-06-24T02:10:33.419Z,16.30
2018-06-24T02:11:33.325Z,16.60
2018-06-24T02:12:33.232Z,17.30
2018-06-24T02:13:33.136Z,15.50
2018-06-24T02:14:33.076Z,17.40
2018-06-24T02:15:32.953Z,12.30
2018-06-24T02:16:32.856Z,13.10
2018-06-24T02:17:32.767Z,14.70
2018-06-24T02:18:32.673Z,14.40
2018-06-24T02:19:32.611Z,15.40
2018-06-24T02:20:32.486Z,14.60
2018-06-24T02:21:32.390Z,13.10
2018-06-24T02:22:32.303Z,14.00
2018-06-24T02:23:32.210Z,15.90
2018-06-24T02:24:32.145Z,17.90
2018-06-24T02:25:32.020Z,19.10
2018-06-24T02:26:31.926Z,21.90
2018-06-24T02:27:31.839Z,15.40
2018-06-24T02:28:31.742Z,13.70
2018-06-24T02:29:31.680Z,15.00
2018-06-24T02:30:31.559Z,16.40
2018-06-24T02:31:31.464Z,13.80
2018-06-24T02:32:31.369Z,11.60
2018-06-24T02:33:31.278Z,14.60
2018-06-24T02:34:31.217Z,13.80
2018-06-24T02:35:31.090Z,16.60
2018-06-24T02:36:30.995Z,16.50
2018-06-24T02:37:30.915Z,13.40
2018-06-24T02:38:30.806Z,15.30
2018-06-24T02:39:30.753Z,12.50
2018-06-24T02:40:30.627Z,13.80
2018-06-24T02:41:30.533Z,14.60
2018-06-24T02:42:30.439Z,15.30
2018-06-24T02:43:30.353Z,16.90
2018-06-24T02:44:30.281Z,14.30
2018-06-24T02:45:30.161Z,14.60
2018-06-24T02:46:30.071Z,14.80
2018-06-24T02:47:29.974Z,14.50
2018-06-24T02:48:29.880Z,15.10
2018-06-24T02:49:29.788Z,16.00
2018-06-24T02:50:29.724Z,15.60
2018-06-24T02:51:29.602Z,14.70
2018-06-24T02:52:29.514Z,12.10
2018-06-24T02:53:29.448Z,12.70
2018-06-24T02:54:29.325Z,14.20
2018-06-24T02:55:29.260Z,15.00
2018-06-24T02:56:29.135Z,14.50
2018-06-24T02:57:29.043Z,15.50
2018-06-24T02:58:29.056Z,13.80
2018-06-24T02:59:28.862Z,14.20
2018-06-24T03:00:28.796Z,15.70
2018-06-24T03:01:28.670Z,16.10
2018-06-24T03:02:28.577Z,15.00
2018-06-24T03:03:28.488Z,14.70
2018-06-24T03:04:28.393Z,14.30
2018-06-24T03:05:28.329Z,17.00
2018-06-24T03:06:28.205Z,13.00
2018-06-24T03:07:28.112Z,15.10
2018-06-24T03:08:28.035Z,15.90
2018-06-24T03:09:27.926Z,15.80
2018-06-24T03:10:27.862Z,16.60
2018-06-24T03:11:27.745Z,15.50
2018-06-24T03:12:27.743Z,15.10
2018-06-24T03:13:27.554Z,15.50
2018-06-24T03:14:27.459Z,16.70
2018-06-24T03:15:27.396Z,13.30
2018-06-24T03:16:27.278Z,16.40
2018-06-24T03:17:27.180Z,17.50
2018-06-24T03:18:27.085Z,13.90
2018-06-24T03:19:27.090Z,13.80
2018-06-24T03:20:26.930Z,16.00
2018-06-24T03:21:26.810Z,14.40
2018-06-24T03:22:26.716Z,15.70
2018-06-24T03:23:26.621Z,14.10
2018-06-24T03:24:26.527Z,13.70
2018-06-24T03:25:26.464Z,13.60
2018-06-24T03:26:26.433Z,15.70
2018-06-24T03:27:26.252Z,14.10
2018-06-24T03:28:26.155Z,14.90
2018-06-24T03:29:26.062Z,16.00
2018-06-24T03:30:26.003Z,13.20
2018-06-24T03:31:25.876Z,17.70
2018-06-24T03:32:25.781Z,17.50
2018-06-24T03:33:25.789Z,15.00
2018-06-24T03:34:25.595Z,16.30
2018-06-24T03:35:25.536Z,16.90
2018-06-24T03:36:25.408Z,15.40
2018-06-24T03:37:25.318Z,16.10
2018-06-24T03:38:25.239Z,17.90
2018-06-24T03:39:25.134Z,18.30
2018-06-24T03:40:25.164Z,13.30
2018-06-24T03:41:24.943Z,13.60
2018-06-24T03:42:24.849Z,16.00
2018-06-24T03:43:24.757Z,18.20
2018-06-24T03:44:24.663Z,14.70
2018-06-24T03:45:24.603Z,16.50
2018-06-24T03:46:24.480Z,14.10
2018-06-24T03:47:24.480Z,17.40
2018-06-24T03:48:24.304Z,15.90
2018-06-24T03:49:24.197Z,15.20
2018-06-24T03:50:24.141Z,12.70
2018-06-24T03:51:24.014Z,15.10
2018-06-24T03:52:23.920Z,13.50
2018-06-24T03:53:23.824Z,14.40
2018-06-24T03:54:23.826Z,13.80
2018-06-24T03:55:23.670Z,15.20
2018-06-24T03:56:23.545Z,16.10
2018-06-24T03:57:23.454Z,17.10
2018-06-24T03:58:23.360Z,15.40
2018-06-24T03:59:23.273Z,16.90
2018-06-24T04:00:23.205Z,14.40
2018-06-24T04:01:23.174Z,14.40
2018-06-24T04:02:22.988Z,15.60
2018-06-24T04:03:22.899Z,13.60
2018-06-24T04:04:22.799Z,14.80
2018-06-24T04:05:22.741Z,14.90
2018-06-24T04:06:22.615Z,12.50
2018-06-24T04:07:22.520Z,12.80
2018-06-24T04:08:22.523Z,16.30
2018-06-24T04:09:22.335Z,14.50
2018-06-24T04:10:22.276Z,15.40
2018-06-24T04:11:22.148Z,13.00
2018-06-24T04:12:22.058Z,15.40
2018-06-24T04:13:21.960Z,12.30
2018-06-24T04:14:21.867Z,14.30
2018-06-24T04:15:21.904Z,14.00
2018-06-24T04:16:21.683Z,14.40
2018-06-24T04:17:21.590Z,16.30
2018-06-24T04:18:21.545Z,13.00
2018-06-24T04:19:21.400Z,14.00
2018-06-24T04:20:21.311Z,12.40
2018-06-24T04:21:21.343Z,17.50
2018-06-24T04:22:21.122Z,17.10
2018-06-24T04:23:21.028Z,15.00
2018-06-24T04:24:20.937Z,13.60
2018-06-24T04:25:20.848Z,11.70
2018-06-24T04:26:20.781Z,16.30
2018-06-24T04:27:20.658Z,13.00
2018-06-24T04:28:20.562Z,15.30
2018-06-24T04:29:20.472Z,11.90
2018-06-24T04:30:20.379Z,12.80
2018-06-24T04:31:20.320Z,14.20
2018-06-24T04:32:20.190Z,12.40
2018-06-24T04:33:20.101Z,12.50
2018-06-24T04:34:20.005Z,14.60
2018-06-24T04:35:19.917Z,15.70
2018-06-24T04:36:19.849Z,16.00
2018-06-24T04:37:19.724Z,13.90
2018-06-24T04:38:19.633Z,11.50
2018-06-24T04:39:19.542Z,11.60
2018-06-24T04:40:19.447Z,13.30
2018-06-24T04:41:19.385Z,12.80
2018-06-24T04:42:19.261Z,12.10
2018-06-24T04:43:19.165Z,14.10
2018-06-24T04:44:19.074Z,16.30
2018-06-24T04:45:18.981Z,12.30
2018-06-24T04:46:18.921Z,14.60
2018-06-24T04:47:18.797Z,12.10
2018-06-24T04:48:18.703Z,10.80
2018-06-24T04:49:18.609Z,11.70
2018-06-24T04:50:18.520Z,10.40
2018-06-24T04:51:18.455Z,13.50
2018-06-24T04:52:18.329Z,13.60
2018-06-24T04:53:18.234Z,12.30
2018-06-24T04:54:18.144Z,12.10
2018-06-24T04:55:18.053Z,11.90
2018-06-24T04:56:17.988Z,12.90
2018-06-24T04:57:17.863Z,13.20
2018-06-24T04:58:17.770Z,12.70
2018-06-24T04:59:17.679Z,12.20
2018-06-24T05:00:17.592Z,11.90
2018-06-24T05:01:17.526Z,12.30
2018-06-24T05:02:17.402Z,10.10
2018-06-24T05:03:17.309Z,10.70
2018-06-24T05:04:17.217Z,12.70
2018-06-24T05:05:17.120Z,11.00
2018-06-24T05:06:17.061Z,11.30
2018-06-24T05:07:16.934Z,9.90
2018-06-24T05:08:16.845Z,11.70
2018-06-24T05:09:16.751Z,12.60
2018-06-24T05:10:16.660Z,10.60
2018-06-24T05:11:16.595Z,12.60
2018-06-24T05:12:16.468Z,13.60
2018-06-24T05:13:16.376Z,15.10
2018-06-24T05:14:16.288Z,11.80
2018-06-24T05:15:16.196Z,10.20
2018-06-24T05:16:16.134Z,11.00
2018-06-24T05:17:16.004Z,10.80
2018-06-24T05:18:15.917Z,8.10
2018-06-24T05:19:15.821Z,10.20
2018-06-24T05:20:15.728Z,8.90
2018-06-24T05:21:15.665Z,12.70
2018-06-24T05:22:15.544Z,10.20
2018-06-24T05:23:15.452Z,11.10
2018-06-24T05:24:15.357Z,9.70
2018-06-24T05:25:15.266Z,7.90
2018-06-24T05:26:15.203Z,10.40
2018-06-24T05:27:15.082Z,14.20
2018-06-24T05:28:14.987Z,12.00
2018-06-24T05:29:14.896Z,10.90
2018-06-24T05:30:14.801Z,9.20
2018-06-24T05:31:14.741Z,9.00
2018-06-24T05:32:14.614Z,10.50
2018-06-24T05:33:14.529Z,10.40
2018-06-24T05:34:14.435Z,11.40
2018-06-24T05:35:14.340Z,8.20
2018-06-24T05:36:14.280Z,9.40
2018-06-24T05:37:14.155Z,9.70
2018-06-24T05:38:14.154Z,9.60
2018-06-24T05:39:13.971Z,10.90
2018-06-24T05:40:13.875Z,9.20
2018-06-24T05:41:13.815Z,9.30
2018-06-24T05:42:13.690Z,10.60
2018-06-24T05:43:13.601Z,7.60
2018-06-24T05:44:13.523Z,11.00
2018-06-24T05:45:13.420Z,10.30
2018-06-24T05:46:13.363Z,11.30
2018-06-24T05:47:13.229Z,9.30
2018-06-24T05:48:13.144Z,8.00
2018-06-24T05:49:13.046Z,10.00
2018-06-24T05:50:12.958Z,7.70
2018-06-24T05:51:12.865Z,9.40
2018-06-24T05:52:12.918Z,10.00
2018-06-24T05:53:12.682Z,7.20
2018-06-24T05:54:12.634Z,7.50
2018-06-24T05:55:12.496Z,8.60
2018-06-24T05:56:12.403Z,8.50
2018-06-24T05:57:12.344Z,7.10
2018-06-24T05:58:12.221Z,10.80
2018-06-24T05:59:12.223Z,7.80
2018-06-24T06:00:12.032Z,9.00
2018-06-24T06:01:11.948Z,8.80
2018-06-24T06:02:11.886Z,6.90
2018-06-24T06:03:11.766Z,8.30
2018-06-24T06:04:11.671Z,8.00
2018-06-24T06:05:11.585Z,7.20
2018-06-24T06:06:11.580Z,7.10
2018-06-24T06:07:11.428Z,9.30
2018-06-24T06:08:11.307Z,6.90
2018-06-24T06:09:11.214Z,7.50
2018-06-24T06:10:11.209Z,7.00
2018-06-24T06:11:11.032Z,8.50
2018-06-24T06:12:10.985Z,8.20
2018-06-24T06:13:10.941Z,8.40
2018-06-24T06:14:10.758Z,8.00
2018-06-24T06:15:10.669Z,6.40
2018-06-24T06:16:10.653Z,6.40
2018-06-24T06:17:10.515Z,6.50
2018-06-24T06:18:10.395Z,7.10
2018-06-24T06:19:10.303Z,6.90
2018-06-24T06:20:10.306Z,7.90
2018-06-24T06:21:10.123Z,5.90
2018-06-24T06:22:10.067Z,6.10
2018-06-24T06:23:09.945Z,6.00
2018-06-24T06:24:09.852Z,5.60
2018-06-24T06:25:09.758Z,6.00
2018-06-24T06:26:09.671Z,7.80
2018-06-24T06:27:09.709Z,6.70
2018-06-24T06:28:09.491Z,6.90
2018-06-24T06:29:09.403Z,6.00
2018-06-24T06:30:09.323Z,8.10
2018-06-24T06:31:09.220Z,7.80
2018-06-24T06:32:09.158Z,7.90
2018-06-24T06:33:09.036Z,9.00
2018-06-24T06:34:09.038Z,6.70
2018-06-24T06:35:08.857Z,8.80
2018-06-24T06:36:08.768Z,7.20
2018-06-24T06:37:08.706Z,8.60
2018-06-24T06:38:08.587Z,7.30
2018-06-24T06:39:08.497Z,8.30
2018-06-24T06:40:08.405Z,6.50
2018-06-24T06:41:08.415Z,7.40
2018-06-24T06:42:08.255Z,5.40
2018-06-24T06:43:08.140Z,6.00
2018-06-24T06:44:08.049Z,7.10
2018-06-24T06:45:08.119Z,6.30
2018-06-24T06:46:07.866Z,6.40
2018-06-24T06:47:07.808Z,6.60
2018-06-24T06:48:07.784Z,6.70
2018-06-24T06:49:07.595Z,6.80
2018-06-24T06:50:07.511Z,8.30
2018-06-24T06:51:07.432Z,6.00
2018-06-24T06:52:07.356Z,5.40
2018-06-24T06:53:07.237Z,6.40
2018-06-24T06:54:07.146Z,5.70
2018-06-24T06:55:07.055Z,5.50
2018-06-24T06:56:06.964Z,8.60
2018-06-24T06:57:06.912Z,6.90
2018-06-24T06:58:06.788Z,4.90
2018-06-24T06:59:06.693Z,5.50
2018-06-24T07:00:06.657Z,5.80
2018-06-24T07:01:06.518Z,6.30
2018-06-24T07:02:06.462Z,7.30
2018-06-24T07:03:06.334Z,7.50
2018-06-24T07:04:06.246Z,5.50
2018-06-24T07:05:06.161Z,5.60
2018-06-24T07:06:06.068Z,5.80
2018-06-24T07:07:06.011Z,6.90
2018-06-24T07:08:05.886Z,6.80
2018-06-24T07:09:05.799Z,6.30
2018-06-24T07:10:05.707Z,5.90
2018-06-24T07:11:05.618Z,7.40
2018-06-24T07:12:05.557Z,5.20
2018-06-24T07:13:05.445Z,5.70
2018-06-24T07:14:05.363Z,5.80
2018-06-24T07:15:05.258Z,6.00
2018-06-24T07:16:05.168Z,6.40
2018-06-24T07:17:05.514Z,7.80
2018-06-24T07:18:04.992Z,6.00
2018-06-24T07:19:04.903Z,5.40
2018-06-24T07:20:04.809Z,5.30
2018-06-24T07:21:04.719Z,5.70
2018-06-24T07:22:04.649Z,5.00
2018-06-24T07:23:04.572Z,6.30
2018-06-24T07:24:04.458Z,5.30
2018-06-24T07:25:04.362Z,8.00
2018-06-24T07:26:04.272Z,7.30
2018-06-24T07:27:04.186Z,4.40
2018-06-24T07:28:04.131Z,4.00
2018-06-24T07:29:04.018Z,5.60
2018-06-24T07:30:03.914Z,5.00
2018-06-24T07:31:03.827Z,5.10
2018-06-24T07:32:03.739Z,5.60
2018-06-24T07:33:03.690Z,4.80
2018-06-24T07:34:03.560Z,5.20
2018-06-24T07:35:03.471Z,7.20
2018-06-24T07:36:03.387Z,4.20
2018-06-24T07:37:03.294Z,7.50
2018-06-24T07:38:03.236Z,4.10
2018-06-24T07:39:03.131Z,7.30
2018-06-24T07:40:03.025Z,5.60
2018-06-24T07:41:02.933Z,8.00
2018-06-24T07:42:02.851Z,6.50
2018-06-24T07:43:02.792Z,3.90
2018-06-24T07:44:02.667Z,4.10
2018-06-24T07:45:02.585Z,5.00
2018-06-24T07:46:02.495Z,5.20
2018-06-24T07:47:02.400Z,4.50
2018-06-24T07:48:02.344Z,7.00
2018-06-24T07:49:02.225Z,4.70
2018-06-24T07:50:02.135Z,5.10
2018-06-24T07:51:02.044Z,6.40
2018-06-24T07:52:01.955Z,4.00
2018-06-24T07:53:01.899Z,3.80
2018-06-24T07:54:01.780Z,4.40
2018-06-24T07:55:01.691Z,5.90
2018-06-24T07:56:01.600Z,5.20
2018-06-24T07:57:01.512Z,5.90
2018-06-24T07:58:01.460Z,4.40
2018-06-24T07:59:01.334Z,5.40
2018-06-24T08:00:01.248Z,7.90
2018-06-24T08:01:01.155Z,4.20
2018-06-24T08:02:01.068Z,6.20
2018-06-24T08:03:01.011Z,4.90
2018-06-24T08:04:00.889Z,4.40
2018-06-24T08:05:00.803Z,4.60
2018-06-24T08:06:00.712Z,5.80
2018-06-24T08:07:00.624Z,5.60
2018-06-24T08:08:00.569Z,5.30
2018-06-24T08:09:00.449Z,3.50
2018-06-24T08:10:00.359Z,3.60
2018-06-24T08:11:00.270Z,3.50
2018-06-24T08:12:00.182Z,4.70
2018-06-24T08:13:00.129Z,3.70
2018-06-24T08:14:00.011Z,3.00
2018-06-24T08:14:59.915Z,3.10
2018-06-24T08:15:59.830Z,5.20
2018-06-24T08:16:59.742Z,4.30
2018-06-24T08:17:59.685Z,3.90
2018-06-24T08:18:59.563Z,4.20
2018-06-24T08:19:59.474Z,2.90
2018-06-24T08:20:59.390Z,3.70
2018-06-24T08:21:59.298Z,4.50
2018-06-24T08:22:59.240Z,4.00
2018-06-24T08:23:59.118Z,5.50
2018-06-24T08:24:59.034Z,4.50
2018-06-24T08:25:58.946Z,3.60
2018-06-24T08:26:58.857Z,5.50
2018-06-24T08:27:58.805Z,4.00
2018-06-24T08:28:58.680Z,4.50
2018-06-24T08:29:58.590Z,3.50
2018-06-24T08:30:58.505Z,5.60
2018-06-24T08:31:58.416Z,3.80
2018-06-24T08:32:58.357Z,5.40
2018-06-24T08:33:58.238Z,3.60
2018-06-24T08:34:58.151Z,5.10
2018-06-24T08:35:58.063Z,4.80
2018-06-24T08:36:57.974Z,5.60
2018-06-24T08:37:57.916Z,5.10
2018-06-24T08:38:57.825Z,3.80
2018-06-24T08:39:57.800Z,3.90
2018-06-24T08:40:57.620Z,4.40
2018-06-24T08:41:57.532Z,4.70
2018-06-24T08:42:57.478Z,5.70
2018-06-24T08:43:57.357Z,3.80
2018-06-24T08:44:57.270Z,5.30
2018-06-24T08:45:57.182Z,5.60
2018-06-24T08:46:57.190Z,4.20
2018-06-24T08:47:57.008Z,4.20
2018-06-24T08:48:56.949Z,3.90
2018-06-24T08:49:56.831Z,3.50
2018-06-24T08:50:56.743Z,3.70
2018-06-24T08:51:56.655Z,5.40
2018-06-24T08:52:56.574Z,2.90
2018-06-24T08:53:56.609Z,5.30
2018-06-24T08:54:56.394Z,3.70
2018-06-24T08:55:56.307Z,3.70
2018-06-24T08:56:56.223Z,4.40
2018-06-24T08:57:56.133Z,2.90
2018-06-24T08:58:56.079Z,3.40
2018-06-24T08:59:55.957Z,3.90
2018-06-24T09:00:55.974Z,3.60
2018-06-24T09:01:55.783Z,3.70
2018-06-24T09:02:55.697Z,5.20
2018-06-24T09:03:55.638Z,5.50
2018-06-24T09:04:55.520Z,4.30
2018-06-24T09:05:55.436Z,3.60
2018-06-24T09:06:55.348Z,4.30
2018-06-24T09:07:55.353Z,4.10
2018-06-24T09:08:55.205Z,3.30
2018-06-24T09:09:55.085Z,3.00
2018-06-24T09:10:55.003Z,5.10
2018-06-24T09:11:54.914Z,2.70
2018-06-24T09:12:54.827Z,3.30
2018-06-24T09:13:54.813Z,3.80
2018-06-24T09:14:54.749Z,3.60
2018-06-24T09:15:54.627Z,2.40
2018-06-24T09:16:54.477Z,3.40
2018-06-24T09:17:54.392Z,3.30
2018-06-24T09:18:54.337Z,3.00
2018-06-24T09:19:54.218Z,3.50
2018-06-24T09:20:54.129Z,2.50
2018-06-24T09:21:54.158Z,1.60
2018-06-24T09:22:53.961Z,4.40
2018-06-24T09:23:53.901Z,2.90
2018-06-24T09:24:53.783Z,3.20
2018-06-24T09:25:53.700Z,3.30
2018-06-24T09:26:53.613Z,4.00
2018-06-24T09:27:53.525Z,2.60
2018-06-24T09:28:53.567Z,2.40
2018-06-24T09:29:53.354Z,2.80
2018-06-24T09:30:53.327Z,3.10
2018-06-24T09:31:53.178Z,3.30
2018-06-24T09:32:53.096Z,3.10
2018-06-24T09:33:53.036Z,2.80
2018-06-24T09:34:52.920Z,1.90
2018-06-24T09:35:52.934Z,3.20
2018-06-24T09:36:52.752Z,2.60
2018-06-24T09:37:52.663Z,2.70
2018-06-24T09:38:52.609Z,3.80
2018-06-24T09:39:52.489Z,2.90
2018-06-24T09:40:52.453Z,2.70
2018-06-24T09:41:52.318Z,3.10
2018-06-24T09:42:52.233Z,2.40
2018-06-24T09:43:52.180Z,2.20
2018-06-24T09:44:52.056Z,3.00
2018-06-24T09:45:51.974Z,3.80
2018-06-24T09:46:51.891Z,3.20
2018-06-24T09:47:51.926Z,2.90
2018-06-24T09:48:51.740Z,2.50
2018-06-24T09:49:51.623Z,2.50
2018-06-24T09:50:51.537Z,4.50
2018-06-24T09:51:51.449Z,2.50
2018-06-24T09:52:51.406Z,2.70
2018-06-24T09:53:51.310Z,2.90
2018-06-24T09:54:51.190Z,3.70
2018-06-24T09:55:51.102Z,2.40
2018-06-24T09:56:51.016Z,3.30
2018-06-24T09:57:50.934Z,2.60
2018-06-24T09:58:50.879Z,4.10
2018-06-24T09:59:50.755Z,2.60
2018-06-24T10:00:50.671Z,6.00
2018-06-24T10:01:50.582Z,4.60
2018-06-24T10:02:50.497Z,2.40
2018-06-24T10:03:50.447Z,3.40
2018-06-24T10:04:50.324Z,3.10
2018-06-24T10:05:50.233Z,3.50
2018-06-24T10:06:50.145Z,5.10
2018-06-24T10:07:50.060Z,3.70
2018-06-24T10:08:50.008Z,2.30
2018-06-24T10:09:49.887Z,3.30
2018-06-24T10:10:49.802Z,3.30
2018-06-24T10:11:49.719Z,2.60
2018-06-24T10:12:49.628Z,3.10
2018-06-24T10:13:49.571Z,3.90
2018-06-24T10:14:49.455Z,3.70
2018-06-24T10:15:49.366Z,3.60
2018-06-24T10:16:49.279Z,3.40
2018-06-24T10:17:49.192Z,2.60
2018-06-24T10:18:49.109Z,4.10
2018-06-24T10:19:49.051Z,3.00
2018-06-24T10:20:48.933Z,3.90
2018-06-24T10:21:48.845Z,4.00
2018-06-24T10:22:48.759Z,3.60
2018-06-24T10:23:48.675Z,2.40
2018-06-24T10:24:48.615Z,2.70
2018-06-24T10:25:48.498Z,3.20
2018-06-24T10:26:48.413Z,3.50
2018-06-24T10:27:48.324Z,3.40
2018-06-24T10:28:48.236Z,3.50
2018-06-24T10:29:48.183Z,3.60
2018-06-24T10:30:48.066Z,3.00
2018-06-24T10:31:47.977Z,2.80
2018-06-24T10:32:47.900Z,2.80
2018-06-24T10:33:47.808Z,5.10
2018-06-24T10:34:47.752Z,7.30
2018-06-24T10:35:47.643Z,6.90
2018-06-24T10:36:47.642Z,5.50
2018-06-24T10:37:47.458Z,5.60
2018-06-24T10:38:47.372Z,7.90
2018-06-24T10:39:47.317Z,5.60
2018-06-24T10:40:47.198Z,8.60
2018-06-24T10:41:47.115Z,10.40
2018-06-24T10:42:47.029Z,5.40
2018-06-24T10:43:47.035Z,7.00
2018-06-24T10:44:46.885Z,7.10
2018-06-24T10:45:46.765Z,6.10
2018-06-24T10:46:46.680Z,4.20
2018-06-24T10:47:46.590Z,5.60
2018-06-24T10:48:46.506Z,4.90
2018-06-24T10:49:46.449Z,6.80
2018-06-24T10:50:46.432Z,5.60
2018-06-24T10:51:46.244Z,4.50
2018-06-24T10:52:46.158Z,4.00
2018-06-24T10:53:46.071Z,4.40
2018-06-24T10:54:46.016Z,4.10
2018-06-24T10:55:45.897Z,5.40
2018-06-24T10:56:45.829Z,3.90
2018-06-24T10:57:45.831Z,3.60
2018-06-24T10:58:45.636Z,3.30
2018-06-24T10:59:45.581Z,3.70
2018-06-24T11:00:45.470Z,2.50
2018-06-24T11:01:45.377Z,3.20
2018-06-24T11:02:45.293Z,3.70
2018-06-24T11:03:45.203Z,3.90
2018-06-24T11:04:45.241Z,2.50
2018-06-24T11:05:45.032Z,3.40
2018-06-24T11:06:44.947Z,2.60
2018-06-24T11:07:44.856Z,3.60
2018-06-24T11:08:44.786Z,5.20
2018-06-24T11:09:44.776Z,3.00
2018-06-24T11:10:44.596Z,3.60
2018-06-24T11:11:44.602Z,3.80
2018-06-24T11:12:44.423Z,2.40
2018-06-24T11:13:44.338Z,2.40
2018-06-24T11:14:44.280Z,3.50
2018-06-24T11:15:44.163Z,2.60
2018-06-24T11:16:44.076Z,3.80
2018-06-24T11:17:43.994Z,4.80
2018-06-24T11:18:43.996Z,4.00
2018-06-24T11:19:43.861Z,4.50
2018-06-24T11:20:43.730Z,3.00
2018-06-24T11:21:43.699Z,2.50
2018-06-24T11:22:43.554Z,3.20
2018-06-24T11:23:43.466Z,2.50
2018-06-24T11:24:43.416Z,3.70
2018-06-24T11:25:43.388Z,2.90
2018-06-24T11:26:43.236Z,2.90
2018-06-24T11:27:43.121Z,3.20
2018-06-24T11:28:43.034Z,3.30
2018-06-24T11:29:42.977Z,2.40
2018-06-24T11:30:42.860Z,3.60
2018-06-24T11:31:42.770Z,2.50
2018-06-24T11:32:42.772Z,3.50
2018-06-24T11:33:42.596Z,3.40
2018-06-24T11:34:42.541Z,3.30
2018-06-24T11:35:42.422Z,2.30
2018-06-24T11:36:42.339Z,3.20
2018-06-24T11:37:42.252Z,2.90
2018-06-24T11:38:42.164Z,3.30
2018-06-24T11:39:42.200Z,3.40
2018-06-24T11:40:41.989Z,3.40
2018-06-24T11:41:41.903Z,2.30
2018-06-24T11:42:41.816Z,3.60
2018-06-24T11:43:41.730Z,3.30
2018-06-24T11:44:41.675Z,2.60
2018-06-24T11:45:41.552Z,4.30
2018-06-24T11:46:41.558Z,3.80
2018-06-24T11:47:41.381Z,4.30
2018-06-24T11:48:41.291Z,2.90
2018-06-24T11:49:41.238Z,2.50
2018-06-24T11:50:41.121Z,3.40
2018-06-24T11:51:41.055Z,2.60
2018-06-24T11:52:40.946Z,3.40
2018-06-24T11:53:40.948Z,1.90
2018-06-24T11:54:40.774Z,3.00
2018-06-24T11:55:40.717Z,4.90
2018-06-24T11:56:40.600Z,2.80
2018-06-24T11:57:40.514Z,2.00
2018-06-24T11:58:40.426Z,3.20
2018-06-24T11:59:40.341Z,4.10
2018-06-24T12:00:40.284Z,3.50
2018-06-24T12:01:40.165Z,2.60
2018-06-24T12:02:40.083Z,4.10
2018-06-24T12:03:39.992Z,2.40
2018-06-24T12:04:39.908Z,3.70
2018-06-24T12:05:39.850Z,3.30
2018-06-24T12:06:39.731Z,2.10
2018-06-24T12:07:39.642Z,3.40
2018-06-24T12:08:39.554Z,2.20
2018-06-24T12:09:39.475Z,5.00
2018-06-24T12:10:39.414Z,2.80
2018-06-24T12:11:39.295Z,2.70
2018-06-24T12:12:39.209Z,5.60
2018-06-24T12:13:39.122Z,3.00
2018-06-24T12:14:39.038Z,3.00
2018-06-24T12:15:38.978Z,3.60
2018-06-24T12:16:38.857Z,3.20
2018-06-24T12:17:38.772Z,3.40
2018-06-24T12:18:38.685Z,3.60
2018-06-24T12:19:38.597Z,3.60
2018-06-24T12:20:38.551Z,3.20
2018-06-24T12:21:38.423Z,4.10
2018-06-24T12:22:38.335Z,1.80
2018-06-24T12:23:38.245Z,3.90
2018-06-24T12:24:38.161Z,3.30
2018-06-24T12:25:38.104Z,2.50
2018-06-24T12:26:37.985Z,3.60
2018-06-24T12:27:37.898Z,4.20
2018-06-24T12:28:37.813Z,4.10
2018-06-24T12:29:37.726Z,3.40
2018-06-24T12:30:37.723Z,2.50
2018-06-24T12:31:37.551Z,3.80
2018-06-24T12:32:37.462Z,4.30
2018-06-24T12:33:37.376Z,3.30
2018-06-24T12:34:37.288Z,3.10
2018-06-24T12:35:37.233Z,3.80
2018-06-24T12:36:37.114Z,2.70
2018-06-24T12:37:37.027Z,3.90
2018-06-24T12:38:36.942Z,3.80
2018-06-24T12:39:36.850Z,2.60
2018-06-24T12:40:36.796Z,1.90
2018-06-24T12:41:36.676Z,3.20
2018-06-24T12:42:36.590Z,2.90
2018-06-24T12:43:36.501Z,3.80
2018-06-24T12:44:36.414Z,2.00
2018-06-24T12:45:36.361Z,2.70
2018-06-24T12:46:36.244Z,3.00
2018-06-24T12:47:36.190Z,3.10
2018-06-24T12:48:36.065Z,3.70
2018-06-24T12:49:35.980Z,2.90
2018-06-24T12:50:35.925Z,4.90
2018-06-24T12:51:35.803Z,4.40
2018-06-24T12:52:35.750Z,3.30
2018-06-24T12:53:35.629Z,2.80
2018-06-24T12:54:35.543Z,2.50
2018-06-24T12:55:35.489Z,2.70
2018-06-24T12:56:35.370Z,2.90
2018-06-24T12:57:35.281Z,3.20
2018-06-24T12:58:35.197Z,4.00
2018-06-24T12:59:35.260Z,5.60
2018-06-24T13:00:35.572Z,3.90
2018-06-24T13:01:34.932Z,2.60
2018-06-24T13:02:34.845Z,4.10
2018-06-24T13:03:34.757Z,3.00
2018-06-24T13:04:34.669Z,3.50
2018-06-24T13:05:34.630Z,2.60
2018-06-24T13:06:34.536Z,2.40